createdAt,value
2022-09-01T00:00:19.826Z,98513.22
2022-09-01T00:02:48.421Z,98510.72
2022-09-01T00:05:15.422Z,98510.44
2022-09-01T00:07:44.156Z,98504.59
2022-09-01T00:10:11.261Z,98511.53
2022-09-01T00:12:38.855Z,98506.88
2022-09-01T00:15:08.506Z,98516.00
2022-09-01T00:17:35.729Z,98514.78
2022-09-01T00:20:04.370Z,98504.47
2022-09-01T00:22:33.958Z,98508.78
2022-09-01T00:25:02.226Z,98511.41
2022-09-01T00:27:30.861Z,98510.47
2022-09-01T00:29:58.717Z,98507.06
2022-09-01T00:32:25.672Z,98512.31
2022-09-01T00:34:52.657Z,98510.94
2022-09-01T00:37:19.613Z,98511.41
2022-09-01T00:39:47.772Z,98513.41
2022-09-01T00:42:14.820Z,98506.81
2022-09-01T00:44:41.721Z,98509.72
2022-09-01T00:47:08.724Z,98512.66
2022-09-01T00:49:43.087Z,98508.81
2022-09-01T00:52:17.672Z,98507.44
2022-09-01T00:54:46.345Z,98513.75
2022-09-01T00:57:14.194Z,98505.72
2022-09-01T00:59:50.133Z,98506.81
2022-09-01T01:02:17.172Z,98507.09
2022-09-01T01:04:44.415Z,98507.25
2022-09-01T01:07:12.633Z,98503.41
2022-09-01T01:09:43.450Z,98502.94
2022-09-01T01:12:18.610Z,98500.63
2022-09-01T01:14:50.747Z,98495.09
2022-09-01T01:17:22.192Z,98492.34
2022-09-01T01:20:11.773Z,98493.22
2022-09-01T01:23:09.325Z,98487.41
2022-09-01T01:25:58.930Z,98490.00
2022-09-01T01:28:32.281Z,98490.75
2022-09-01T01:31:12.837Z,98487.72
2022-09-01T01:33:45.050Z,98481.84
2022-09-01T01:36:18.041Z,98481.06
2022-09-01T01:38:48.339Z,98476.91
2022-09-01T01:41:19.779Z,98475.03
2022-09-01T01:43:48.497Z,98473.50
2022-09-01T01:46:19.335Z,98473.50
2022-09-01T01:48:47.733Z,98476.16
2022-09-01T01:51:19.022Z,98487.06
2022-09-01T01:53:47.424Z,98479.81
2022-09-01T01:56:14.797Z,98493.69
2022-09-01T01:58:41.645Z,98486.09
2022-09-01T02:01:12.925Z,98483.22
2022-09-01T02:03:43.008Z,98484.25
2022-09-01T02:06:12.225Z,98483.84
2022-09-01T02:08:41.413Z,98495.69
2022-09-01T02:11:09.168Z,98493.81
2022-09-01T02:13:36.257Z,98480.25
2022-09-01T02:16:07.890Z,98479.34
2022-09-01T02:18:38.133Z,98474.88
2022-09-01T02:21:14.991Z,98472.88
2022-09-01T02:23:44.824Z,98475.47
2022-09-01T02:26:16.884Z,98474.59
2022-09-01T02:28:54.655Z,98471.78
2022-09-01T02:31:28.393Z,98468.25
2022-09-01T02:33:58.749Z,98471.50
2022-09-01T02:36:25.826Z,98467.63
2022-09-01T02:38:56.491Z,98469.75
2022-09-01T02:41:25.365Z,98461.78
2022-09-01T02:43:52.689Z,98468.84
2022-09-01T02:46:24.511Z,98464.06
2022-09-01T02:48:53.371Z,98463.72
2022-09-01T02:51:24.250Z,98463.13
2022-09-01T02:53:55.211Z,98460.34
2022-09-01T02:56:27.116Z,98454.78
2022-09-01T02:58:55.168Z,98458.66
2022-09-01T03:01:29.827Z,98454.00
2022-09-01T03:04:01.790Z,98458.69
2022-09-01T03:06:31.626Z,98458.47
2022-09-01T03:09:01.818Z,98456.75
2022-09-01T03:11:31.760Z,98454.59
2022-09-01T03:13:59.539Z,98443.22
2022-09-01T03:16:30.634Z,98450.31
2022-09-01T03:18:58.867Z,98454.09
2022-09-01T03:21:26.085Z,98451.03
2022-09-01T03:23:53.935Z,98453.66
2022-09-01T03:26:22.678Z,98446.72
2022-09-01T03:28:52.288Z,98453.34
2022-09-01T03:31:20.818Z,98455.63
2022-09-01T03:33:49.431Z,98450.34
2022-09-01T03:36:22.267Z,98460.50
2022-09-01T03:38:51.165Z,98453.38
2022-09-01T03:41:22.623Z,98452.66
2022-09-01T03:43:56.901Z,98458.47
2022-09-01T03:46:26.867Z,98452.91
2022-09-01T03:48:58.879Z,98452.53
2022-09-01T03:51:27.317Z,98454.25
2022-09-01T03:53:55.329Z,98454.81
2022-09-01T03:56:27.696Z,98447.88
2022-09-01T03:58:59.682Z,98444.69
2022-09-01T04:01:28.311Z,98442.31
2022-09-01T04:03:55.703Z,98442.59
2022-09-01T04:06:31.202Z,98447.38
2022-09-01T04:09:03.418Z,98443.03
2022-09-01T04:11:33.723Z,98447.66
2022-09-01T04:14:01.720Z,98444.22
2022-09-01T04:16:51.458Z,98449.94
2022-09-01T04:19:25.574Z,98446.41
2022-09-01T04:21:56.288Z,98453.59
2022-09-01T04:24:28.478Z,98457.25
2022-09-01T04:26:58.814Z,98456.91
2022-09-01T04:29:29.219Z,98452.75
2022-09-01T04:32:05.825Z,98457.94
2022-09-01T04:34:40.563Z,98452.72
2022-09-01T04:37:19.724Z,98453.13
2022-09-01T04:39:56.085Z,98451.66
2022-09-01T04:42:29.644Z,98453.00
2022-09-01T04:45:00.151Z,98459.78
2022-09-01T04:47:42.163Z,98447.84
2022-09-01T04:50:18.055Z,98457.66
2022-09-01T04:53:06.471Z,98451.72
2022-09-01T04:55:49.768Z,98463.88
2022-09-01T04:58:18.737Z,98448.31
2022-09-01T05:00:52.580Z,98454.31
2022-09-01T05:03:24.810Z,98463.31
2022-09-01T05:06:17.871Z,98453.19
2022-09-01T05:08:52.808Z,98453.41
2022-09-01T05:11:45.733Z,98456.19
2022-09-01T05:14:30.603Z,98457.34
2022-09-01T05:16:59.159Z,98456.63
2022-09-01T05:19:30.046Z,98456.63
2022-09-01T05:22:00.145Z,98452.19
2022-09-01T05:24:30.621Z,98458.81
2022-09-01T05:27:00.666Z,98454.88
2022-09-01T05:29:29.807Z,98460.25
2022-09-01T05:31:58.909Z,98458.34
2022-09-01T05:34:27.312Z,98467.53
2022-09-01T05:36:59.371Z,98462.56
2022-09-01T05:39:27.435Z,98466.53
2022-09-01T05:41:55.091Z,98467.59
2022-09-01T05:44:25.467Z,98467.19
2022-09-01T05:46:56.077Z,98467.50
2022-09-01T05:49:24.775Z,98463.53
2022-09-01T05:51:55.284Z,98475.44
2022-09-01T05:54:27.566Z,98465.50
2022-09-01T05:57:04.891Z,98470.31
2022-09-01T05:59:42.270Z,98461.44
2022-09-01T06:02:16.334Z,98465.75
2022-09-01T06:04:44.414Z,98465.00
2022-09-01T06:07:25.254Z,98463.63
2022-09-01T06:09:54.007Z,98464.41
2022-09-01T06:12:28.377Z,98471.16
2022-09-01T06:14:56.474Z,98475.03
2022-09-01T06:17:26.484Z,98473.66
2022-09-01T06:19:57.855Z,98468.56
2022-09-01T06:22:28.514Z,98474.59
2022-09-01T06:25:01.949Z,98467.97
2022-09-01T06:27:34.745Z,98481.66
2022-09-01T06:30:15.413Z,98474.44
2022-09-01T06:32:51.002Z,98475.81
2022-09-01T06:35:18.775Z,98485.22
2022-09-01T06:37:48.694Z,98489.38
2022-09-01T06:40:51.140Z,98480.84
2022-09-01T06:43:23.332Z,98485.94
2022-09-01T06:45:54.750Z,98491.06
2022-09-01T06:48:24.681Z,98498.19
2022-09-01T06:51:20.929Z,98489.00
2022-09-01T06:53:56.755Z,98500.81
2022-09-01T06:56:32.186Z,98504.91
2022-09-01T06:59:04.522Z,98494.97
2022-09-01T07:01:35.636Z,98489.53
2022-09-01T07:04:03.212Z,98500.34
2022-09-01T07:07:00.339Z,98494.81
2022-09-01T07:10:06.366Z,98488.31
2022-09-01T07:13:06.297Z,98504.88
2022-09-01T07:18:27.188Z,98497.81
2022-09-01T07:26:35.546Z,98497.47
2022-09-01T07:29:06.247Z,98504.41
2022-09-01T07:34:41.953Z,98512.97
2022-09-01T07:42:30.320Z,98499.88
2022-09-01T07:43:08.774Z,98514.06
2022-09-01T07:45:58.492Z,98515.84
2022-09-01T07:48:36.666Z,98522.94
2022-09-01T07:51:36.561Z,98516.47
2022-09-01T07:54:05.605Z,98518.56
2022-09-01T07:56:36.312Z,98517.38
2022-09-01T07:59:08.336Z,98522.88
2022-09-01T08:01:43.230Z,98518.78
2022-09-01T08:04:10.301Z,98524.28
2022-09-01T08:06:40.969Z,98519.31
2022-09-01T08:09:11.560Z,98523.00
2022-09-01T08:14:26.237Z,98528.09
2022-09-01T08:16:53.524Z,98521.44
2022-09-01T08:19:21.020Z,98523.44
2022-09-01T08:22:17.410Z,98528.44
2022-09-01T08:24:55.236Z,98520.41
2022-09-01T08:27:23.076Z,98521.31
2022-09-01T08:29:52.739Z,98516.28
2022-09-01T08:32:21.355Z,98524.66
2022-09-01T08:34:48.334Z,98524.13
2022-09-01T08:37:15.513Z,98515.59
2022-09-01T08:39:43.164Z,98520.22
2022-09-01T08:42:32.952Z,98523.03
2022-09-01T08:45:25.212Z,98521.78
2022-09-01T08:48:22.455Z,98531.19
2022-09-01T08:50:42.460Z,98526.47
2022-09-01T08:53:33.428Z,98519.47
2022-09-01T08:56:00.692Z,98525.19
2022-09-01T08:58:32.317Z,98527.25
2022-09-01T09:01:49.688Z,98519.41
2022-09-01T09:04:31.826Z,98513.06
2022-09-01T09:07:24.281Z,98523.69
2022-09-01T09:09:58.019Z,98528.81
2022-09-01T09:12:28.625Z,98522.53
2022-09-01T09:15:10.424Z,98519.13
2022-09-01T09:17:42.180Z,98514.50
2022-09-01T09:20:11.205Z,98513.25
2022-09-01T09:22:39.640Z,98517.75
2022-09-01T09:25:19.227Z,98519.09
2022-09-01T09:28:00.541Z,98517.31
2022-09-01T09:30:29.766Z,98513.50
2022-09-01T09:35:50.964Z,98506.47
2022-09-01T09:38:24.301Z,98505.19
2022-09-01T09:41:17.836Z,98507.84
2022-09-01T09:43:56.072Z,98500.59
2022-09-01T09:46:27.861Z,98490.69
2022-09-01T09:49:12.304Z,98495.44
2022-09-01T09:51:42.038Z,98500.59
2022-09-01T09:54:13.417Z,98492.69
2022-09-01T09:56:47.246Z,98496.50
2022-09-01T09:59:33.959Z,98497.34
2022-09-01T10:02:16.035Z,98484.34
2022-09-01T10:04:42.958Z,98483.72
2022-09-01T10:07:30.943Z,98482.16
2022-09-01T10:10:05.897Z,98479.72
2022-09-01T10:12:33.818Z,98475.22
2022-09-01T10:15:12.587Z,98477.53
2022-09-01T10:17:43.864Z,98468.13
2022-09-01T10:20:11.711Z,98468.13
2022-09-01T10:22:40.066Z,98455.78
2022-09-01T10:25:10.422Z,98467.38
2022-09-01T10:27:44.884Z,98468.28
2022-09-01T10:30:19.300Z,98472.25
2022-09-01T10:32:55.677Z,98468.75
2022-09-01T10:35:34.586Z,98467.38
2022-09-01T10:38:07.092Z,98471.56
2022-09-01T10:41:07.746Z,98462.78
2022-09-01T10:43:49.023Z,98459.56
2022-09-01T10:46:26.095Z,98458.69
2022-09-01T10:48:56.713Z,98449.47
2022-09-01T10:51:36.346Z,98457.34
2022-09-01T10:54:51.772Z,98455.19
2022-09-01T10:57:42.282Z,98457.06
2022-09-01T11:00:36.145Z,98452.53
2022-09-01T11:06:14.398Z,98441.91
2022-09-01T11:08:59.407Z,98448.59
2022-09-01T11:11:39.786Z,98444.97
2022-09-01T11:14:18.909Z,98444.41
2022-09-01T11:17:17.617Z,98445.47
2022-09-01T11:19:56.280Z,98444.25
2022-09-01T11:22:27.436Z,98432.03
2022-09-01T11:25:38.598Z,98445.66
2022-09-01T11:28:32.178Z,98431.75
2022-09-01T11:31:11.109Z,98433.31
2022-09-01T11:33:59.109Z,98440.38
2022-09-01T11:36:53.906Z,98435.31
2022-09-01T11:39:26.797Z,98433.13
2022-09-01T11:42:08.950Z,98434.28
2022-09-01T11:44:38.667Z,98437.66
2022-09-01T11:47:14.175Z,98435.00
2022-09-01T11:49:56.565Z,98430.84
2022-09-01T11:52:27.027Z,98425.53
2022-09-01T11:54:54.853Z,98428.19
2022-09-01T11:57:24.368Z,98424.81
2022-09-01T11:59:51.787Z,98417.22
2022-09-01T12:02:33.753Z,98425.09
2022-09-01T12:05:24.634Z,98421.25
2022-09-01T12:07:52.883Z,98421.31
2022-09-01T12:10:32.419Z,98411.38
2022-09-01T12:13:10.311Z,98411.44
2022-09-01T12:16:07.052Z,98412.22
2022-09-01T12:18:35.742Z,98402.94
2022-09-01T12:21:04.928Z,98398.91
2022-09-01T12:23:43.229Z,98396.25
2022-09-01T12:26:14.774Z,98400.22
2022-09-01T12:28:42.521Z,98389.31
2022-09-01T12:31:23.883Z,98394.28
2022-09-01T12:33:52.708Z,98389.94
2022-09-01T12:36:32.370Z,98375.63
2022-09-01T12:39:17.575Z,98387.34
2022-09-01T12:41:47.371Z,98376.03
2022-09-01T12:44:42.800Z,98375.78
2022-09-01T12:47:16.179Z,98376.03
2022-09-01T12:49:50.676Z,98371.09
2022-09-01T12:52:26.344Z,98376.31
2022-09-01T12:54:59.724Z,98377.56
2022-09-01T12:57:30.378Z,98377.25
2022-09-01T13:00:18.287Z,98378.75
2022-09-01T13:02:50.949Z,98378.28
2022-09-01T13:05:42.075Z,98381.03
2022-09-01T13:08:18.431Z,98372.22
2022-09-01T13:10:48.532Z,98375.06
2022-09-01T13:13:17.090Z,98370.78
2022-09-01T13:15:48.413Z,98368.16
2022-09-01T13:18:16.867Z,98370.03
2022-09-01T13:20:44.165Z,98362.41
2022-09-01T13:23:12.883Z,98353.25
2022-09-01T13:25:40.651Z,98352.47
2022-09-01T13:28:09.272Z,98345.78
2022-09-01T13:30:36.339Z,98340.53
2022-09-01T13:33:20.415Z,98338.38
2022-09-01T13:35:48.663Z,98339.56
2022-09-01T13:38:17.974Z,98338.69
2022-09-01T13:40:47.306Z,98337.66
2022-09-01T13:43:15.879Z,98333.53
2022-09-01T13:45:45.062Z,98334.72
2022-09-01T13:48:16.472Z,98329.00
2022-09-01T13:53:33.505Z,98333.28
2022-09-01T13:56:03.546Z,98325.22
2022-09-01T13:58:30.464Z,98328.50
2022-09-01T14:01:00.174Z,98333.09
2022-09-01T14:03:28.112Z,98333.00
2022-09-01T14:05:55.003Z,98324.81
2022-09-01T14:08:23.080Z,98319.19
2022-09-01T14:10:52.206Z,98322.00
2022-09-01T14:13:22.293Z,98318.63
2022-09-01T14:15:49.767Z,98312.75
2022-09-01T14:18:19.889Z,98325.59
2022-09-01T14:20:48.988Z,98321.66
2022-09-01T14:23:16.257Z,98323.25
2022-09-01T14:25:48.630Z,98323.63
2022-09-01T14:28:16.593Z,98324.50
2022-09-01T14:33:17.418Z,98317.47
2022-09-01T14:35:47.701Z,98318.06
2022-09-01T14:38:18.236Z,98317.16
2022-09-01T14:40:48.371Z,98314.03
2022-09-01T14:43:15.455Z,98315.94
2022-09-01T14:45:46.106Z,98313.50
2022-09-01T14:48:15.086Z,98312.06
2022-09-01T14:50:44.488Z,98314.63
2022-09-01T14:53:14.280Z,98305.44
2022-09-01T14:55:44.159Z,98304.41
2022-09-01T14:58:11.168Z,98293.81
2022-09-01T15:00:39.367Z,98297.13
2022-09-01T15:03:06.253Z,98298.03
2022-09-01T15:05:39.417Z,98299.16
2022-09-01T15:08:07.604Z,98300.25
2022-09-01T15:10:34.561Z,98295.72
2022-09-01T15:13:04.897Z,98293.84
2022-09-01T15:15:32.727Z,98294.50
2022-09-01T15:18:00.670Z,98295.22
2022-09-01T15:20:46.884Z,98293.72
2022-09-01T15:23:18.301Z,98286.78
2022-09-01T15:25:46.056Z,98280.41
2022-09-01T15:28:13.385Z,98284.41
2022-09-01T15:30:40.953Z,98276.88
2022-09-01T15:33:13.192Z,98273.94
2022-09-01T15:35:41.530Z,98276.97
2022-09-01T15:38:08.715Z,98274.25
2022-09-01T15:40:39.582Z,98273.72
2022-09-01T15:43:06.671Z,98275.97
2022-09-01T15:45:36.581Z,98276.13
2022-09-01T15:48:03.566Z,98273.59
2022-09-01T15:50:30.420Z,98261.56
2022-09-01T15:53:01.591Z,98272.72
2022-09-01T15:55:41.527Z,98269.69
2022-09-01T15:58:09.634Z,98265.72
2022-09-01T16:00:36.997Z,98271.47
2022-09-01T16:03:05.504Z,98272.44
2022-09-01T16:05:35.227Z,98274.03
2022-09-01T16:08:04.966Z,98268.72
2022-09-01T16:10:36.574Z,98263.50
2022-09-01T16:13:04.348Z,98261.47
2022-09-01T16:15:31.682Z,98262.53
2022-09-01T16:18:16.758Z,98268.69
2022-09-01T16:20:52.863Z,98256.31
2022-09-01T16:23:23.211Z,98257.44
2022-09-01T16:25:50.092Z,98259.75
2022-09-01T16:28:30.379Z,98260.94
2022-09-01T16:31:06.064Z,98262.88
2022-09-01T16:33:33.325Z,98256.41
2022-09-01T16:36:33.079Z,98254.16
2022-09-01T16:39:06.563Z,98247.28
2022-09-01T16:41:44.831Z,98254.53
2022-09-01T16:44:14.694Z,98249.56
2022-09-01T16:46:57.214Z,98242.34
2022-09-01T16:49:33.363Z,98250.28
2022-09-01T16:52:13.075Z,98244.59
2022-09-01T16:54:55.124Z,98246.50
2022-09-01T16:57:27.989Z,98241.94
2022-09-01T16:59:59.575Z,98234.72
2022-09-01T17:02:44.899Z,98236.63
2022-09-01T17:05:20.172Z,98239.66
2022-09-01T17:07:49.089Z,98240.03
2022-09-01T17:10:22.264Z,98234.34
2022-09-01T17:12:56.168Z,98235.84
2022-09-01T17:15:34.273Z,98230.50
2022-09-01T17:18:10.215Z,98235.41
2022-09-01T17:20:55.640Z,98231.59
2022-09-01T17:23:31.087Z,98237.66
2022-09-01T17:26:08.887Z,98239.16
2022-09-01T17:28:39.124Z,98235.75
2022-09-01T17:31:22.296Z,98231.91
2022-09-01T17:33:56.292Z,98234.53
2022-09-01T17:36:47.073Z,98233.34
2022-09-01T17:39:40.225Z,98229.13
2022-09-01T17:42:33.016Z,98233.22
2022-09-01T17:45:10.260Z,98238.47
2022-09-01T17:48:15.416Z,98240.28
2022-09-01T17:51:09.400Z,98237.91
2022-09-01T17:54:13.927Z,98246.16
2022-09-01T17:57:14.452Z,98239.66
2022-09-01T17:59:53.693Z,98238.31
2022-09-01T18:02:58.624Z,98240.94
2022-09-01T18:05:27.312Z,98245.03
2022-09-01T18:08:30.490Z,98241.94
2022-09-01T18:11:06.282Z,98239.44
2022-09-01T18:13:53.016Z,98244.38
2022-09-01T18:16:25.123Z,98233.69
2022-09-01T18:18:56.030Z,98245.03
2022-09-01T18:21:32.579Z,98247.16
2022-09-01T18:24:21.413Z,98250.06
2022-09-01T18:26:50.756Z,98258.22
2022-09-01T18:29:17.990Z,98255.09
2022-09-01T18:32:26.374Z,98258.31
2022-09-01T18:35:02.744Z,98260.88
2022-09-01T18:37:37.682Z,98264.13
2022-09-01T18:40:19.275Z,98267.47
2022-09-01T18:42:54.509Z,98270.63
2022-09-01T18:45:30.492Z,98276.13
2022-09-01T18:48:16.097Z,98270.00
2022-09-01T18:51:16.705Z,98273.25
2022-09-01T18:54:18.465Z,98277.38
2022-09-01T18:56:56.980Z,98283.91
2022-09-01T18:59:48.337Z,98284.63
2022-09-01T19:02:37.155Z,98283.94
2022-09-01T19:05:10.514Z,98286.50
2022-09-01T19:07:53.893Z,98287.16
2022-09-01T19:10:49.710Z,98293.25
2022-09-01T19:13:31.747Z,98290.97
2022-09-01T19:16:36.326Z,98285.91
2022-09-01T19:19:10.418Z,98283.81
2022-09-01T19:21:37.998Z,98288.97
2022-09-01T19:24:13.798Z,98288.81
2022-09-01T19:26:47.638Z,98288.69
2022-09-01T19:29:23.763Z,98297.22
2022-09-01T19:31:57.461Z,98287.22
2022-09-01T19:34:30.545Z,98291.16
2022-09-01T19:37:00.849Z,98291.88
2022-09-01T19:39:37.630Z,98295.66
2022-09-01T19:42:11.595Z,98291.19
2022-09-01T19:44:38.426Z,98296.72
2022-09-01T19:47:12.041Z,98292.34
2022-09-01T19:49:51.405Z,98299.03
2022-09-01T19:52:32.435Z,98299.03
2022-09-01T19:55:08.886Z,98301.34
2022-09-01T19:57:57.570Z,98299.16
2022-09-01T20:00:31.831Z,98303.66
2022-09-01T20:03:09.562Z,98302.28
2022-09-01T20:05:56.452Z,98297.84
2022-09-01T20:08:45.346Z,98299.72
2022-09-01T20:11:24.283Z,98294.84
2022-09-01T20:14:18.746Z,98300.09
2022-09-01T20:17:00.292Z,98301.69
2022-09-01T20:19:30.125Z,98295.47
2022-09-01T20:22:13.074Z,98303.06
2022-09-01T20:24:40.135Z,98307.84
2022-09-01T20:27:25.784Z,98301.88
2022-09-01T20:30:15.143Z,98302.72
2022-09-01T20:33:10.566Z,98307.16
2022-09-01T20:35:52.777Z,98304.25
2022-09-01T20:38:46.398Z,98298.53
2022-09-01T20:41:40.187Z,98307.28
2022-09-01T20:44:17.072Z,98302.97
2022-09-01T20:46:44.062Z,98304.56
2022-09-01T20:49:15.872Z,98307.03
2022-09-01T20:52:00.502Z,98310.19
2022-09-01T20:54:49.241Z,98304.22
2022-09-01T20:57:58.024Z,98302.88
2022-09-01T21:00:27.533Z,98301.75
2022-09-01T21:03:12.386Z,98306.91
2022-09-01T21:05:45.694Z,98307.81
2022-09-01T21:08:40.957Z,98308.28
2022-09-01T21:11:26.567Z,98305.06
2022-09-01T21:14:13.979Z,98308.41
2022-09-01T21:16:47.493Z,98303.06
2022-09-01T21:19:20.614Z,98305.78
2022-09-01T21:22:11.670Z,98303.38
2022-09-01T21:24:40.035Z,98308.94
2022-09-01T21:27:16.232Z,98297.38
2022-09-01T21:29:49.930Z,98301.03
2022-09-01T21:32:17.664Z,98311.81
2022-09-01T21:34:45.976Z,98303.53
2022-09-01T21:37:13.477Z,98301.72
2022-09-01T21:39:40.699Z,98303.69
2022-09-01T21:42:09.763Z,98297.56
2022-09-01T21:44:37.288Z,98293.88
2022-09-01T21:47:04.627Z,98303.38
2022-09-01T21:49:32.228Z,98297.63
2022-09-01T21:52:00.172Z,98294.56
2022-09-01T21:54:27.208Z,98292.47
2022-09-01T21:56:54.045Z,98287.44
2022-09-01T21:59:21.226Z,98290.06
2022-09-01T22:01:48.673Z,98292.16
2022-09-01T22:04:15.767Z,98296.31
2022-09-01T22:06:42.766Z,98290.22
2022-09-01T22:09:20.451Z,98294.03
2022-09-01T22:11:50.326Z,98294.03
2022-09-01T22:14:18.468Z,98283.31
2022-09-01T22:16:46.616Z,98285.25
2022-09-01T22:19:14.173Z,98290.34
2022-09-01T22:21:42.050Z,98287.19
2022-09-01T22:24:09.211Z,98289.06
2022-09-01T22:26:36.607Z,98287.09
2022-09-01T22:29:06.228Z,98288.66
2022-09-01T22:31:36.647Z,98288.31
2022-09-01T22:34:04.757Z,98287.69
2022-09-01T22:36:38.180Z,98287.22
2022-09-01T22:39:07.123Z,98284.06
2022-09-01T22:41:35.146Z,98281.09
2022-09-01T22:44:05.136Z,98283.75
2022-09-01T22:46:34.625Z,98275.75
2022-09-01T22:49:02.125Z,98276.53
2022-09-01T22:51:29.885Z,98281.56
2022-09-01T22:53:56.770Z,98278.53
2022-09-01T22:56:29.400Z,98288.59
2022-09-01T22:58:59.232Z,98279.97
2022-09-01T23:01:34.772Z,98288.94
2022-09-01T23:04:05.081Z,98281.16
2022-09-01T23:06:34.182Z,98280.63
2022-09-01T23:09:02.588Z,98285.56
2022-09-01T23:11:30.199Z,98278.75
2022-09-01T23:13:57.852Z,98281.38
2022-09-01T23:16:26.016Z,98281.94
2022-09-01T23:18:57.141Z,98276.88
2022-09-01T23:21:27.734Z,98275.25
2022-09-01T23:23:58.496Z,98274.81
2022-09-01T23:26:27.794Z,98272.28
2022-09-01T23:28:55.612Z,98271.72
2022-09-01T23:31:25.721Z,98271.84
2022-09-01T23:33:53.544Z,98274.53
2022-09-01T23:36:23.130Z,98262.81
2022-09-01T23:38:53.773Z,98275.75
2022-09-01T23:41:24.277Z,98272.44
2022-09-01T23:43:52.127Z,98267.72
2022-09-01T23:46:22.606Z,98276.81
2022-09-01T23:48:50.495Z,98270.59
2022-09-01T23:51:20.295Z,98267.84
2022-09-01T23:53:48.210Z,98269.09
2022-09-01T23:56:21.183Z,98265.06
2022-09-01T23:58:49.073Z,98267.94
